Time;durP1;ratioP1;P1;durP2;ratioP2;P2;SDS_P1;SDS_P2;PMS_P1;PMS_P2;Temp;Humidity;BMP_temperature;BMP_pressure;BME280_temperature;BME280_humidity;BME280_pressure;Samples;Min_cycle;Max_cycle;Signal;HPM_P1;HPM_P2
2023/02/27 00:01:19;;;;;;;5.18;1.40;;;15.90;32.20;;;;;;5076045;28;20308;-71
2023/02/27 00:03:46;;;;;;;3.67;1.33;;;15.90;32.20;;;;;;5075934;28;20226;-71
2023/02/27 00:06:16;;;;;;;3.22;1.30;;;15.90;32.30;;;;;;5076135;28;20236;-71
2023/02/27 00:08:43;;;;;;;3.78;1.42;;;15.90;32.30;;;;;;5075713;28;20356;-71
2023/02/27 00:11:10;;;;;;;2.95;1.38;;;15.90;32.30;;;;;;5076099;28;20187;-63
2023/02/27 00:13:39;;;;;;;4.32;1.30;;;15.90;32.30;;;;;;5075762;28;20191;-71
2023/02/27 00:16:07;;;;;;;3.42;1.50;;;15.90;32.30;;;;;;5075978;28;20536;-71
2023/02/27 00:18:34;;;;;;;6.35;2.00;;;15.90;32.40;;;;;;5075804;28;20214;-71
2023/02/27 00:21:01;;;;;;;6.63;1.40;;;15.90;32.30;;;;;;5075234;28;20772;-70
2023/02/27 00:23:29;;;;;;;4.00;1.35;;;15.90;32.40;;;;;;5075706;28;20714;-70
2023/02/27 00:25:56;;;;;;;7.60;1.70;;;15.90;32.40;;;;;;5075525;28;20232;-69
2023/02/27 00:28:23;;;;;;;2.88;1.20;;;15.90;32.40;;;;;;5075402;28;20652;-71
2023/02/27 00:30:51;;;;;;;4.15;1.38;;;15.90;32.40;;;;;;5075713;28;20195;-64
2023/02/27 00:33:18;;;;;;;5.28;1.45;;;15.90;32.40;;;;;;5075670;28;20256;-72
2023/02/27 00:35:46;;;;;;;4.75;1.35;;;15.90;32.50;;;;;;5075852;28;20219;-67
2023/02/27 00:38:13;;;;;;;5.00;1.45;;;15.90;32.50;;;;;;5075355;28;20257;-70
2023/02/27 00:40:40;;;;;;;3.40;1.40;;;15.80;32.40;;;;;;5075655;28;20280;-70
2023/02/27 00:43:07;;;;;;;5.97;1.67;;;15.90;32.50;;;;;;5075205;28;20195;-71
2023/02/27 00:45:34;;;;;;;5.47;1.45;;;15.90;33.20;;;;;;5075560;28;20276;-70
2023/02/27 00:48:03;;;;;;;7.43;1.40;;;15.90;32.50;;;;;;5075287;28;20190;-71
2023/02/27 00:50:30;;;;;;;3.70;1.65;;;15.90;32.60;;;;;;5075233;28;20634;-70
2023/02/27 00:52:57;;;;;;;4.22;1.35;;;15.90;32.60;;;;;;5075223;28;20237;-68
2023/02/27 00:55:24;;;;;;;2.65;1.13;;;15.90;32.60;;;;;;5075163;28;20219;-71
2023/02/27 00:57:51;;;;;;;4.15;1.50;;;15.90;32.60;;;;;;5075049;28;20222;-68
2023/02/27 01:00:19;;;;;;;6.20;1.70;;;15.90;32.60;;;;;;5075097;28;20222;-71
2023/02/27 01:02:46;;;;;;;4.78;1.40;;;15.90;32.70;;;;;;5075083;28;20187;-70
2023/02/27 01:05:15;;;;;;;4.57;1.40;;;15.90;32.70;;;;;;5073737;28;20249;-71
2023/02/27 01:07:42;;;;;;;5.75;1.40;;;15.90;32.80;;;;;;5074930;28;20191;-70
2023/02/27 01:10:11;;;;;;;5.78;1.60;;;15.90;32.80;;;;;;5075080;28;20222;-71
2023/02/27 01:12:39;;;;;;;4.22;1.40;;;15.80;32.70;;;;;;5075049;28;20202;-69
2023/02/27 01:15:09;;;;;;;6.25;1.48;;;15.90;32.80;;;;;;5075098;28;20272;-71
2023/02/27 01:17:36;;;;;;;5.88;1.30;;;15.90;32.80;;;;;;5074363;28;20237;-70
2023/02/27 01:20:03;;;;;;;5.38;1.48;;;15.90;32.80;;;;;;5074653;28;20235;-62
2023/02/27 01:22:33;;;;;;;5.55;1.90;;;15.90;32.80;;;;;;5074931;28;20260;-71
2023/02/27 01:25:00;;;;;;;5.88;1.50;;;15.80;32.90;;;;;;5074432;28;20222;-61
2023/02/27 01:27:27;;;;;;;6.82;2.00;;;15.80;32.90;;;;;;5074307;28;20715;-71
2023/02/27 01:29:54;;;;;;;3.53;1.50;;;15.90;33.00;;;;;;5074736;28;20628;-61
2023/02/27 01:32:21;;;;;;;4.63;1.60;;;15.90;33.00;;;;;;5074287;28;20244;-62
2023/02/27 01:34:48;;;;;;;4.47;1.30;;;15.80;32.90;;;;;;5074454;28;20215;-61
2023/02/27 01:37:15;;;;;;;2.97;1.23;;;15.80;32.90;;;;;;5074353;28;20191;-64
2023/02/27 01:39:43;;;;;;;3.80;1.30;;;15.90;33.00;;;;;;5074455;28;20230;-63
2023/02/27 01:42:19;;;;;;;4.28;1.30;;;15.90;33.00;;;;;;5069684;28;20660;-60
2023/02/27 01:45:22;;;;;;;4.05;1.30;;;15.80;32.90;;;;;;5066949;28;20218;-64
2023/02/27 01:47:53;;;;;;;4.72;1.55;;;15.80;33.00;;;;;;5073837;28;20190;-61
2023/02/27 01:50:20;;;;;;;5.70;1.30;;;15.80;32.90;;;;;;5074284;28;20215;-68
2023/02/27 01:52:52;;;;;;;5.30;1.40;;;15.80;32.90;;;;;;5074004;28;20622;-68
2023/02/27 01:55:22;;;;;;;2.97;1.23;;;15.80;32.90;;;;;;5074148;28;20634;-71
2023/02/27 01:57:50;;;;;;;2.90;1.30;;;15.80;33.00;;;;;;5073839;28;20256;-68
2023/02/27 02:00:18;;;;;;;3.08;1.40;;;15.80;33.00;;;;;;5073643;28;20769;-71
2023/02/27 02:02:52;;;;;;;4.88;1.30;;;15.80;32.90;;;;;;5073926;28;20244;-70
2023/02/27 02:05:21;;;;;;;5.65;1.73;;;15.80;32.90;;;;;;5073552;28;20644;-68
2023/02/27 02:07:50;;;;;;;2.40;1.13;;;15.80;32.90;;;;;;5073907;28;20190;-69
2023/02/27 02:10:19;;;;;;;3.22;1.52;;;15.80;32.90;;;;;;5073971;28;20214;-67
2023/02/27 02:12:48;;;;;;;3.80;1.27;;;15.80;32.90;;;;;;5073474;28;20191;-71
2023/02/27 02:15:15;;;;;;;1.95;1.05;;;15.80;32.90;;;;;;5073536;28;20215;-70
2023/02/27 02:17:49;;;;;;;4.10;1.30;;;15.80;33.00;;;;;;5072813;28;20198;-65
2023/02/27 02:20:55;;;;;;;3.47;1.55;;;15.80;32.90;;;;;;5073228;28;20809;-67
2023/02/27 02:23:46;;;;;;;2.20;1.20;;;15.80;33.00;;;;;;5073663;28;20194;-62
2023/02/27 02:26:34;;;;;;;2.95;1.77;;;15.80;33.00;;;;;;5073589;28;20194;-67
2023/02/27 02:29:34;;;;;;;2.67;1.30;;;15.80;33.00;;;;;;5073326;28;20248;-66
2023/02/27 02:32:34;;;;;;;6.38;1.30;;;15.80;33.10;;;;;;5001609;28;20254;-61
2023/02/27 02:35:34;;;;;;;3.60;1.10;;;15.80;33.20;;;;;;5030741;28;20220;-62
2023/02/27 02:38:41;;;;;;;3.72;1.20;;;15.80;33.20;;;;;;5031024;28;20204;-70
2023/02/27 02:41:16;;;;;;;3.22;1.30;;;15.80;33.30;;;;;;5030736;28;20625;-66
2023/02/27 02:43:53;;;;;;;5.40;1.40;;;15.80;33.40;;;;;;5030905;28;20196;-62
2023/02/27 02:46:29;;;;;;;4.10;1.38;;;15.80;33.40;;;;;;5030729;28;20646;-71
2023/02/27 02:49:04;;;;;;;3.78;1.40;;;15.70;33.30;;;;;;5030485;28;20266;-67
2023/02/27 02:51:35;;;;;;;2.65;1.27;;;15.80;33.50;;;;;;5030578;28;20429;-69
2023/02/27 02:54:09;;;;;;;3.83;1.30;;;15.80;33.50;;;;;;5030496;28;20188;-69
2023/02/27 02:56:41;;;;;;;4.93;1.52;;;15.80;33.50;;;;;;5030678;28;20195;-70
2023/02/27 02:59:14;;;;;;;4.18;1.40;;;15.70;33.40;;;;;;5030359;28;20756;-71
2023/02/27 03:01:45;;;;;;;2.53;1.10;;;15.70;33.50;;;;;;5030341;28;20204;-71
2023/02/27 03:04:18;;;;;;;3.38;1.38;;;15.70;33.50;;;;;;5030316;28;20633;-67
2023/02/27 03:06:52;;;;;;;3.47;1.23;;;15.70;33.50;;;;;;5030226;28;20189;-69
2023/02/27 03:09:25;;;;;;;4.18;1.80;;;15.70;33.50;;;;;;5056631;28;20218;-65
2023/02/27 03:11:53;;;;;;;6.65;1.90;;;15.70;33.50;;;;;;5072407;28;20191;-70
2023/02/27 03:14:26;;;;;;;3.35;1.15;;;15.70;33.60;;;;;;5072762;28;20218;-70
2023/02/27 03:16:57;;;;;;;3.35;1.42;;;15.70;33.60;;;;;;5072344;28;20644;-71
2023/02/27 03:19:28;;;;;;;4.68;1.30;;;15.70;33.70;;;;;;5072274;28;20246;-70
2023/02/27 03:21:59;;;;;;;7.30;1.55;;;15.70;33.70;;;;;;5072575;28;20205;-71
2023/02/27 03:24:33;;;;;;;4.65;1.38;;;15.80;33.80;;;;;;5072278;28;20620;-71
2023/02/27 03:27:02;;;;;;;4.65;1.27;;;15.70;33.70;;;;;;5072228;28;20187;-69
2023/02/27 03:29:36;;;;;;;6.40;1.30;;;15.80;33.80;;;;;;5071840;28;20229;-70
2023/02/27 03:32:08;;;;;;;2.60;1.08;;;15.70;33.70;;;;;;5072532;28;20616;-72
2023/02/27 03:34:38;;;;;;;6.07;1.55;;;15.70;33.80;;;;;;5072270;28;20315;-64
2023/02/27 03:37:14;;;;;;;2.65;1.40;;;15.70;33.80;;;;;;5072355;28;20608;-70
2023/02/27 03:39:46;;;;;;;5.78;1.38;;;15.70;33.80;;;;;;5072074;28;20287;-71
2023/02/27 03:42:23;;;;;;;2.60;1.13;;;15.70;33.90;;;;;;5072313;28;20183;-70
2023/02/27 03:45:00;;;;;;;2.78;1.23;;;15.70;33.90;;;;;;5072447;28;20219;-71
2023/02/27 03:47:28;;;;;;;2.05;1.27;;;15.70;33.90;;;;;;5072246;28;20240;-71
2023/02/27 03:49:56;;;;;;;3.08;1.50;;;15.70;34.00;;;;;;5072095;28;20215;-70
2023/02/27 03:52:25;;;;;;;5.53;1.40;;;15.70;34.00;;;;;;5071962;28;20191;-71
2023/02/27 03:54:58;;;;;;;3.38;1.30;;;15.70;34.00;;;;;;5071948;28;20269;-69
2023/02/27 03:57:26;;;;;;;4.90;1.50;;;15.70;34.00;;;;;;5071817;28;20762;-68
2023/02/27 03:59:54;;;;;;;4.38;1.48;;;15.70;34.00;;;;;;5071849;28;20230;-71
2023/02/27 04:02:21;;;;;;;3.58;1.15;;;15.70;34.00;;;;;;5071862;28;20645;-71
2023/02/27 04:04:48;;;;;;;4.78;1.30;;;15.70;34.10;;;;;;5071803;28;20719;-63
2023/02/27 04:07:26;;;;;;;3.88;1.42;;;15.70;34.10;;;;;;5071983;28;20190;-67
2023/02/27 04:10:19;;;;;;;4.50;1.20;;;15.70;34.20;;;;;;5071745;28;20222;-69
2023/02/27 04:13:15;;;;;;;1.88;1.10;;;15.70;34.20;;;;;;5072120;28;20191;-71
2023/02/27 04:16:17;;;;;;;3.53;1.35;;;15.70;34.20;;;;;;5071850;28;20774;-70
2023/02/27 04:18:59;;;;;;;5.85;1.50;;;15.70;34.20;;;;;;5071758;28;20218;-67
2023/02/27 04:21:33;;;;;;;3.60;1.48;;;15.70;34.30;;;;;;5071960;28;20210;-64
2023/02/27 04:24:10;;;;;;;4.70;1.30;;;15.70;34.30;;;;;;5072073;28;20187;-70
2023/02/27 04:26:44;;;;;;;1.90;1.15;;;15.70;34.30;;;;;;5071841;28;20221;-70
2023/02/27 04:29:17;;;;;;;3.35;1.10;;;15.70;34.40;;;;;;5071871;28;20195;-64
2023/02/27 04:31:50;;;;;;;5.45;1.08;;;15.70;34.30;;;;;;5071526;28;20252;-66
2023/02/27 04:34:23;;;;;;;3.72;1.58;;;15.70;34.30;;;;;;5071497;28;20194;-69
2023/02/27 04:36:56;;;;;;;3.92;1.20;;;15.70;34.40;;;;;;5071985;28;20191;-70
2023/02/27 04:39:28;;;;;;;3.92;1.23;;;15.70;34.40;;;;;;5072576;28;20238;-68
2023/02/27 04:42:01;;;;;;;4.38;1.25;;;15.70;34.40;;;;;;5075507;28;20195;-67
2023/02/27 04:44:31;;;;;;;3.45;1.20;;;15.70;34.50;;;;;;5075200;28;20268;-70
2023/02/27 04:47:00;;;;;;;3.00;1.20;;;15.70;34.50;;;;;;5075347;28;20551;-71
2023/02/27 04:49:31;;;;;;;1.95;1.10;;;15.70;34.50;;;;;;5075432;28;20219;-70
2023/02/27 04:52:03;;;;;;;2.42;1.15;;;15.60;34.40;;;;;;5075299;28;20187;-70
2023/02/27 04:54:38;;;;;;;2.22;1.10;;;15.70;34.60;;;;;;5075306;28;20276;-69
2023/02/27 04:57:10;;;;;;;3.20;1.10;;;15.70;34.50;;;;;;5074871;28;20240;-65
2023/02/27 04:59:42;;;;;;;3.53;1.20;;;15.60;34.50;;;;;;5075136;28;20280;-64
2023/02/27 05:02:14;;;;;;;2.50;1.00;;;15.70;34.60;;;;;;5074824;28;20191;-65
2023/02/27 05:04:44;;;;;;;3.28;1.00;;;15.60;34.60;;;;;;5074859;28;20688;-64
2023/02/27 05:07:16;;;;;;;3.08;1.33;;;15.60;34.60;;;;;;5075023;28;20218;-64
2023/02/27 05:09:48;;;;;;;2.88;1.27;;;15.60;34.60;;;;;;5074634;28;20214;-67
2023/02/27 05:12:21;;;;;;;3.28;1.20;;;15.60;34.60;;;;;;5074654;28;20187;-67
2023/02/27 05:14:52;;;;;;;3.80;1.00;;;15.60;34.70;;;;;;5074557;28;20215;-65
2023/02/27 05:17:22;;;;;;;2.53;1.20;;;15.60;34.70;;;;;;5074877;28;20236;-65
2023/02/27 05:19:49;;;;;;;2.83;1.30;;;15.60;34.70;;;;;;5074434;28;20234;-65
2023/02/27 05:22:27;;;;;;;4.85;1.63;;;15.60;34.80;;;;;;5074784;28;20325;-62
2023/02/27 05:25:01;;;;;;;3.60;1.08;;;15.60;34.80;;;;;;5074813;28;20228;-64
2023/02/27 05:27:39;;;;;;;2.80;1.20;;;15.60;34.80;;;;;;5074746;28;20254;-66
2023/02/27 05:30:12;;;;;;;4.80;1.40;;;15.60;34.80;;;;;;5074643;28;20613;-68
2023/02/27 05:32:44;;;;;;;4.10;1.40;;;15.60;34.90;;;;;;5074150;28;20191;-63
2023/02/27 05:35:20;;;;;;;4.25;1.20;;;15.60;34.90;;;;;;5074565;28;20708;-60
2023/02/27 05:37:51;;;;;;;3.95;1.48;;;15.60;34.90;;;;;;5074388;28;20191;-65
2023/02/27 05:40:23;;;;;;;4.22;1.20;;;15.60;34.90;;;;;;5074148;28;20315;-63
2023/02/27 05:42:58;;;;;;;3.20;1.10;;;15.60;35.00;;;;;;5074320;28;20187;-64
2023/02/27 05:45:30;;;;;;;3.13;1.20;;;15.60;35.10;;;;;;5074411;28;20218;-66
2023/02/27 05:48:00;;;;;;;4.82;1.42;;;15.60;35.20;;;;;;5074227;28;20209;-62
2023/02/27 05:50:31;;;;;;;2.92;1.33;;;15.70;35.40;;;;;;5073963;28;20214;-71
2023/02/27 05:53:03;;;;;;;3.78;1.33;;;15.60;35.30;;;;;;5073585;28;20214;-70
2023/02/27 05:55:35;;;;;;;3.10;1.25;;;15.70;35.40;;;;;;5074258;28;20215;-71
2023/02/27 05:58:09;;;;;;;4.53;1.00;;;15.70;35.90;;;;;;5073945;28;20540;-70
2023/02/27 06:00:41;;;;;;;3.08;1.15;;;15.80;35.30;;;;;;5073822;28;20688;-71
2023/02/27 06:03:08;;;;;;;2.80;1.15;;;15.90;35.20;;;;;;5073638;28;20240;-65
2023/02/27 06:05:36;;;;;;;2.22;1.05;;;16.00;35.20;;;;;;5074047;28;20227;-71
2023/02/27 06:08:04;;;;;;;2.65;1.20;;;16.00;35.10;;;;;;5073817;28;20191;-70
2023/02/27 06:10:31;;;;;;;6.40;1.48;;;16.10;35.10;;;;;;5073739;28;20215;-70
2023/02/27 06:12:58;;;;;;;4.47;1.45;;;16.20;35.10;;;;;;5073603;28;20653;-70
2023/02/27 06:15:27;;;;;;;1.77;1.20;;;16.20;35.00;;;;;;5073767;28;20218;-70
2023/02/27 06:17:55;;;;;;;2.67;1.27;;;16.30;35.00;;;;;;5073312;28;20237;-70
2023/02/27 06:20:22;;;;;;;3.47;1.23;;;16.30;35.00;;;;;;5073162;28;20300;-70
2023/02/27 06:22:49;;;;;;;1.77;1.00;;;16.40;35.00;;;;;;5074059;28;20202;-66
2023/02/27 06:25:16;;;;;;;4.20;1.40;;;16.40;35.00;;;;;;5073610;28;20219;-68
2023/02/27 06:27:43;;;;;;;3.13;1.10;;;16.50;35.00;;;;;;5073444;28;20183;-70
2023/02/27 06:30:11;;;;;;;3.40;1.30;;;16.50;35.00;;;;;;5073585;28;20296;-72
2023/02/27 06:32:40;;;;;;;3.80;1.05;;;16.60;35.00;;;;;;5073297;28;20191;-66
2023/02/27 06:35:08;;;;;;;4.93;1.38;;;16.60;34.90;;;;;;5073402;28;20284;-70
2023/02/27 06:37:35;;;;;;;2.45;0.93;;;16.70;35.00;;;;;;5073391;28;20226;-71
2023/02/27 06:40:04;;;;;;;2.95;1.05;;;16.70;34.90;;;;;;5073274;28;20234;-70
2023/02/27 06:42:32;;;;;;;2.55;1.00;;;16.80;34.90;;;;;;5073233;28;20278;-69
2023/02/27 06:44:59;;;;;;;2.63;1.00;;;16.80;34.90;;;;;;5072867;28;20629;-68
2023/02/27 06:47:26;;;;;;;3.42;1.13;;;16.90;35.00;;;;;;5072979;28;20248;-69
2023/02/27 06:49:54;;;;;;;1.63;1.02;;;16.90;34.90;;;;;;5073098;28;20222;-66
2023/02/27 06:52:21;;;;;;;2.65;1.17;;;16.90;34.90;;;;;;5072719;28;20183;-71
2023/02/27 06:54:48;;;;;;;2.22;1.20;;;16.90;34.80;;;;;;5072650;28;20257;-68
2023/02/27 06:57:15;;;;;;;2.97;1.20;;;17.00;34.90;;;;;;5072862;28;20190;-70
2023/02/27 06:59:44;;;;;;;2.78;1.00;;;17.00;34.80;;;;;;5072771;28;20704;-65
2023/02/27 07:02:13;;;;;;;3.47;1.25;;;17.10;34.90;;;;;;5071663;28;20191;-66
2023/02/27 07:04:40;;;;;;;3.13;1.20;;;17.10;34.80;;;;;;5072487;28;20229;-67
2023/02/27 07:07:10;;;;;;;1.88;0.90;;;17.10;34.80;;;;;;5072757;28;20195;-71
2023/02/27 07:09:37;;;;;;;3.15;1.20;;;17.20;34.80;;;;;;5072341;28;20725;-65
2023/02/27 07:12:05;;;;;;;2.65;1.20;;;17.20;34.80;;;;;;5072488;28;20190;-71
2023/02/27 07:14:33;;;;;;;2.72;1.10;;;17.20;34.80;;;;;;5071411;28;20195;-69
2023/02/27 07:17:03;;;;;;;1.95;1.00;;;17.20;34.70;;;;;;5072424;28;20191;-71
2023/02/27 07:19:31;;;;;;;2.22;1.10;;;17.30;34.80;;;;;;5071859;28;20226;-69
2023/02/27 07:21:58;;;;;;;3.55;1.27;;;17.30;34.80;;;;;;5072607;28;20319;-70
2023/02/27 07:24:27;;;;;;;2.85;1.20;;;17.30;34.70;;;;;;5053641;28;20256;-61
2023/02/27 07:26:54;;;;;;;2.42;1.10;;;17.30;34.70;;;;;;5072236;28;20198;-67
2023/02/27 07:29:22;;;;;;;2.60;1.27;;;17.30;34.70;;;;;;5072220;28;20194;-71
2023/02/27 07:31:52;;;;;;;2.53;1.10;;;17.40;34.70;;;;;;5070991;28;20229;-69
2023/02/27 07:34:20;;;;;;;2.35;1.02;;;17.40;34.70;;;;;;5072020;28;20660;-71
2023/02/27 07:36:48;;;;;;;3.47;1.50;;;17.40;34.60;;;;;;5072743;28;20276;-70
2023/02/27 07:39:18;;;;;;;3.50;1.23;;;17.50;34.70;;;;;;5072408;28;20199;-71
2023/02/27 07:41:47;;;;;;;3.50;1.00;;;17.50;34.60;;;;;;5072247;28;20230;-70
2023/02/27 07:44:19;;;;;;;2.65;1.20;;;17.50;34.50;;;;;;5072005;28;20649;-65
2023/02/27 07:46:49;;;;;;;2.17;1.17;;;17.50;34.50;;;;;;5053388;28;20219;-70
2023/02/27 07:49:20;;;;;;;3.25;1.13;;;17.50;34.50;;;;;;5070677;28;20266;-64
2023/02/27 07:51:49;;;;;;;4.43;1.23;;;17.50;34.40;;;;;;5071965;28;20320;-70
2023/02/27 07:54:23;;;;;;;2.00;1.13;;;17.60;34.50;;;;;;5071895;28;20280;-68
2023/02/27 07:56:58;;;;;;;2.65;1.17;;;17.60;34.50;;;;;;5054544;28;20634;-70
2023/02/27 07:59:29;;;;;;;3.80;1.20;;;17.60;34.50;;;;;;5071875;28;20186;-70
2023/02/27 08:02:01;;;;;;;3.40;1.27;;;17.60;34.40;;;;;;5049784;28;20222;-70
2023/02/27 08:04:30;;;;;;;3.67;1.08;;;17.60;34.50;;;;;;5049488;28;20729;-71
2023/02/27 08:07:00;;;;;;;5.15;1.33;;;17.60;34.50;;;;;;5032986;28;20199;-68
2023/02/27 08:09:30;;;;;;;3.35;1.30;;;17.70;34.50;;;;;;5033440;28;20202;-62
2023/02/27 08:12:03;;;;;;;2.28;1.10;;;17.70;34.50;;;;;;5033485;28;20215;-64
2023/02/27 08:14:32;;;;;;;2.60;1.13;;;17.70;34.50;;;;;;5034539;28;20349;-64
2023/02/27 08:17:10;;;;;;;2.45;1.10;;;17.70;34.50;;;;;;5036865;28;20200;-63
2023/02/27 08:19:43;;;;;;;2.47;1.00;;;17.70;34.50;;;;;;5059933;28;20721;-68
2023/02/27 08:22:11;;;;;;;1.85;0.90;;;17.70;34.50;;;;;;5007915;28;20606;-61
2023/02/27 08:24:43;;;;;;;2.97;1.13;;;17.80;34.60;;;;;;5075564;28;20248;-65
2023/02/27 08:27:14;;;;;;;3.10;1.30;;;17.80;34.60;;;;;;5057179;28;20361;-62
2023/02/27 08:29:49;;;;;;;3.58;1.35;;;17.80;34.60;;;;;;5075397;28;20186;-64
2023/02/27 08:32:19;;;;;;;2.58;0.85;;;17.80;34.60;;;;;;5075711;28;20271;-64
2023/02/27 08:34:49;;;;;;;2.53;1.30;;;17.80;34.60;;;;;;5075299;28;20282;-67
2023/02/27 08:37:20;;;;;;;2.78;1.08;;;17.80;34.60;;;;;;5075668;28;20187;-64
2023/02/27 08:39:48;;;;;;;3.65;1.50;;;17.80;34.60;;;;;;5075127;28;20197;-63
2023/02/27 08:42:17;;;;;;;2.67;1.17;;;17.90;34.70;;;;;;5075779;28;20194;-61
2023/02/27 08:44:45;;;;;;;1.63;0.90;;;17.90;34.60;;;;;;5075406;28;20713;-61
2023/02/27 08:47:12;;;;;;;3.97;1.52;;;17.90;34.60;;;;;;5075064;28;20226;-61
2023/02/27 08:49:39;;;;;;;2.50;1.23;;;17.90;34.60;;;;;;5075573;28;20607;-70
2023/02/27 08:52:08;;;;;;;2.65;0.98;;;17.90;34.50;;;;;;5075287;28;20202;-66
2023/02/27 08:54:35;;;;;;;3.20;1.58;;;17.90;34.40;;;;;;5074943;28;20195;-67
2023/02/27 08:57:03;;;;;;;4.13;1.10;;;17.90;34.40;;;;;;5074992;28;20779;-66
2023/02/27 08:59:32;;;;;;;3.92;1.40;;;17.90;34.30;;;;;;5074856;28;20572;-68
2023/02/27 09:01:59;;;;;;;2.67;1.40;;;17.90;34.30;;;;;;5075364;28;20234;-64
2023/02/27 09:04:26;;;;;;;1.83;0.90;;;17.90;34.30;;;;;;5075097;28;20790;-61
2023/02/27 09:06:53;;;;;;;2.83;0.95;;;17.90;34.30;;;;;;5075330;28;20218;-62
2023/02/27 09:09:22;;;;;;;3.40;1.30;;;17.90;34.20;;;;;;5074768;28;20645;-62
2023/02/27 09:11:49;;;;;;;3.35;1.20;;;17.90;34.20;;;;;;5075208;28;20223;-69
2023/02/27 09:14:17;;;;;;;4.30;1.25;;;18.00;34.30;;;;;;5074876;28;20256;-71
2023/02/27 09:16:46;;;;;;;4.35;1.33;;;18.00;34.20;;;;;;5074744;28;20215;-69
2023/02/27 09:19:13;;;;;;;2.83;1.10;;;18.00;34.20;;;;;;5074318;28;20183;-70
2023/02/27 09:21:40;;;;;;;3.17;1.45;;;18.00;34.20;;;;;;5074378;28;20605;-67
2023/02/27 09:24:09;;;;;;;2.40;1.20;;;18.00;34.10;;;;;;5075068;28;20199;-61
2023/02/27 09:26:37;;;;;;;2.65;1.10;;;18.00;34.10;;;;;;5073056;28;20215;-67
2023/02/27 09:29:04;;;;;;;3.10;1.35;;;18.00;34.10;;;;;;5074734;28;20206;-67
2023/02/27 09:31:31;;;;;;;2.50;1.33;;;18.00;34.00;;;;;;5074425;28;20219;-67
2023/02/27 09:34:00;;;;;;;3.85;1.38;;;18.00;34.00;;;;;;5074323;28;20183;-71
2023/02/27 09:36:27;;;;;;;2.38;1.10;;;18.00;34.00;;;;;;5074120;28;20794;-70
2023/02/27 09:38:55;;;;;;;3.45;1.35;;;18.10;34.00;;;;;;5074523;28;20265;-70
2023/02/27 09:41:40;;;;;;;3.35;1.23;;;18.10;34.00;;;;;;5074370;28;20231;-71
2023/02/27 09:44:19;;;;;;;3.80;1.33;;;18.10;34.00;;;;;;5074121;28;20653;-67
2023/02/27 09:46:46;;;;;;;2.80;1.10;;;18.10;34.00;;;;;;5074596;28;20218;-70
2023/02/27 09:49:19;;;;;;;3.03;1.13;;;18.10;33.90;;;;;;5074023;28;20711;-64
2023/02/27 09:51:47;;;;;;;2.05;1.13;;;18.10;33.90;;;;;;5074114;28;20588;-64
2023/02/27 09:54:15;;;;;;;4.70;1.50;;;18.10;33.90;;;;;;5074257;28;20191;-70
2023/02/27 09:56:47;;;;;;;4.82;1.63;;;18.10;33.90;;;;;;5073956;28;20210;-69
2023/02/27 09:59:21;;;;;;;3.55;1.35;;;18.10;33.90;;;;;;5074237;28;20190;-68
2023/02/27 10:01:52;;;;;;;4.40;1.45;;;18.10;33.90;;;;;;5073795;28;20718;-70
2023/02/27 10:04:34;;;;;;;5.25;1.58;;;18.10;33.20;;;;;;5074019;28;20191;-70
2023/02/27 10:07:10;;;;;;;2.35;1.27;;;17.90;32.30;;;;;;5074180;28;20222;-67
2023/02/27 10:09:54;;;;;;;7.53;1.60;;;17.70;32.10;;;;;;5073858;28;20604;-66
2023/02/27 10:12:41;;;;;;;9.27;1.80;;;17.50;32.20;;;;;;5073972;28;20199;-65
2023/02/27 10:15:14;;;;;;;8.13;1.58;;;17.30;32.30;;;;;;5073948;28;20219;-66
2023/02/27 10:17:47;;;;;;;4.20;1.70;;;17.10;32.20;;;;;;5073734;28;20195;-69
2023/02/27 10:20:22;;;;;;;6.53;1.80;;;16.90;33.10;;;;;;5073252;28;20230;-68
2023/02/27 10:22:52;;;;;;;10.30;1.80;;;16.80;34.70;;;;;;5073298;28;20717;-65
2023/02/27 10:25:20;;;;;;;8.25;1.50;;;16.80;37.10;;;;;;5073235;28;20249;-66
2023/02/27 10:27:50;;;;;;;9.38;2.08;;;16.80;38.00;;;;;;5073514;28;20248;-68
2023/02/27 10:30:21;;;;;;;9.02;1.80;;;16.90;37.80;;;;;;5073403;28;20219;-63
2023/02/27 10:32:51;;;;;;;4.13;1.52;;;17.00;37.90;;;;;;5073131;28;20187;-67
2023/02/27 10:35:30;;;;;;;4.72;1.48;;;17.00;37.40;;;;;;5073433;28;20276;-67
2023/02/27 10:38:00;;;;;;;7.43;1.42;;;17.10;37.10;;;;;;5073336;28;20198;-62
2023/02/27 10:40:29;;;;;;;4.55;1.67;;;17.20;36.80;;;;;;5073120;28;20219;-62
2023/02/27 10:43:00;;;;;;;8.07;1.48;;;17.30;36.70;;;;;;5073258;28;20186;-63
2023/02/27 10:45:27;;;;;;;2.88;1.25;;;17.30;36.40;;;;;;5073216;28;20226;-65
2023/02/27 10:47:54;;;;;;;3.58;1.45;;;17.40;36.30;;;;;;5072790;28;20592;-67
2023/02/27 10:50:27;;;;;;;6.03;1.30;;;17.50;36.20;;;;;;5073075;28;20210;-67
2023/02/27 10:52:57;;;;;;;4.07;1.20;;;17.50;36.10;;;;;;5073032;28;20187;-63
2023/02/27 10:55:27;;;;;;;5.50;1.30;;;17.60;36.10;;;;;;5072715;28;20211;-64
2023/02/27 10:57:55;;;;;;;3.28;1.38;;;17.60;35.90;;;;;;5073091;28;20194;-64
2023/02/27 11:00:38;;;;;;;4.20;1.50;;;17.60;35.80;;;;;;5073021;28;20251;-67
2023/02/27 11:03:05;;;;;;;3.78;1.33;;;17.70;35.80;;;;;;5072432;28;20657;-64
2023/02/27 11:05:36;;;;;;;3.80;1.40;;;17.70;35.60;;;;;;5072803;28;20214;-63
2023/02/27 11:08:21;;;;;;;3.35;1.33;;;17.80;35.50;;;;;;5072460;28;20244;-64
2023/02/27 11:10:59;;;;;;;4.75;1.88;;;17.80;35.40;;;;;;5072853;28;20318;-62
2023/02/27 11:13:30;;;;;;;4.22;1.40;;;17.80;35.20;;;;;;5072434;28;20182;-67
2023/02/27 11:16:07;;;;;;;4.00;1.35;;;17.80;35.10;;;;;;5072663;28;20225;-62
2023/02/27 11:18:36;;;;;;;5.45;1.40;;;17.90;35.10;;;;;;5072689;28;20190;-65
2023/02/27 11:21:16;;;;;;;5.50;1.73;;;17.90;34.90;;;;;;5072397;28;20230;-67
2023/02/27 11:23:53;;;;;;;6.32;1.30;;;17.90;34.80;;;;;;5072638;28;20278;-66
2023/02/27 11:26:24;;;;;;;7.05;1.75;;;17.90;34.70;;;;;;5072657;28;20280;-67
2023/02/27 11:29:13;;;;;;;3.45;1.40;;;17.90;34.70;;;;;;5072215;28;20183;-66
2023/02/27 11:31:46;;;;;;;3.88;1.40;;;17.90;34.70;;;;;;5072669;28;20219;-67
2023/02/27 11:34:20;;;;;;;5.75;1.50;;;18.00;34.80;;;;;;5072533;28;20187;-63
2023/02/27 11:36:51;;;;;;;6.47;1.55;;;18.00;34.80;;;;;;5072281;28;20267;-63
2023/02/27 11:39:26;;;;;;;3.38;1.17;;;18.00;34.70;;;;;;5072407;28;20195;-62
2023/02/27 11:41:55;;;;;;;5.35;1.40;;;18.00;34.60;;;;;;5072289;28;20233;-67
2023/02/27 11:44:26;;;;;;;3.72;1.48;;;18.10;34.60;;;;;;5072345;28;20191;-65
2023/02/27 11:47:07;;;;;;;2.63;1.10;;;18.10;34.50;;;;;;5072347;28;20297;-62
2023/02/27 11:49:39;;;;;;;3.03;1.48;;;18.10;34.40;;;;;;5071628;28;20602;-64
2023/02/27 11:52:20;;;;;;;2.10;1.20;;;18.10;34.30;;;;;;5071954;28;20735;-64
2023/02/27 11:54:50;;;;;;;3.05;1.30;;;18.10;34.30;;;;;;5072305;28;20240;-65
2023/02/27 11:57:25;;;;;;;3.05;1.40;;;18.10;34.30;;;;;;5072169;28;20584;-68
2023/02/27 11:59:57;;;;;;;3.67;1.55;;;18.10;34.10;;;;;;5072198;28;20214;-63
2023/02/27 12:02:30;;;;;;;2.33;1.55;;;18.10;34.10;;;;;;5072240;28;20230;-66
2023/02/27 12:05:04;;;;;;;3.83;1.30;;;18.10;34.00;;;;;;5071840;28;20714;-64
2023/02/27 12:07:36;;;;;;;2.13;1.13;;;18.20;34.00;;;;;;5071739;28;20195;-67
2023/02/27 12:10:10;;;;;;;4.55;1.35;;;18.20;34.00;;;;;;5071779;28;20244;-63
2023/02/27 12:12:44;;;;;;;2.55;1.30;;;18.20;34.00;;;;;;5071832;28;20661;-64
2023/02/27 12:15:22;;;;;;;3.50;1.20;;;18.20;33.90;;;;;;5071625;28;20728;-63
2023/02/27 12:17:55;;;;;;;3.38;1.25;;;18.20;33.90;;;;;;5071707;28;20665;-64
2023/02/27 12:20:26;;;;;;;3.42;1.48;;;18.20;33.80;;;;;;5071632;28;20284;-65
2023/02/27 12:22:56;;;;;;;5.22;1.30;;;18.20;33.70;;;;;;5071625;28;20268;-66
2023/02/27 12:25:34;;;;;;;4.00;1.25;;;18.30;33.80;;;;;;5072223;28;20195;-63
2023/02/27 12:28:08;;;;;;;3.85;1.30;;;18.30;33.70;;;;;;5071623;28;20660;-66
2023/02/27 12:30:42;;;;;;;3.50;1.10;;;18.30;33.70;;;;;;5071945;28;20235;-65
2023/02/27 12:33:20;;;;;;;5.32;1.30;;;18.30;33.70;;;;;;5071955;28;20191;-66
2023/02/27 12:35:55;;;;;;;5.30;1.30;;;18.30;33.60;;;;;;5071463;28;20264;-68
2023/02/27 12:38:24;;;;;;;3.53;1.20;;;18.30;33.60;;;;;;5071826;28;20186;-65
2023/02/27 12:41:04;;;;;;;2.85;1.80;;;18.30;33.50;;;;;;5071921;28;20219;-64
2023/02/27 12:43:38;;;;;;;3.60;1.17;;;18.30;33.50;;;;;;5071668;28;20233;-67
2023/02/27 12:46:25;;;;;;;5.50;1.58;;;18.30;33.40;;;;;;5071770;28;20260;-66
2023/02/27 12:49:16;;;;;;;2.35;1.25;;;18.30;33.40;;;;;;5071486;28;20596;-66
2023/02/27 12:51:51;;;;;;;1.90;1.05;;;18.30;33.40;;;;;;5071630;28;20222;-63
2023/02/27 12:54:32;;;;;;;3.50;1.25;;;18.40;33.40;;;;;;5071777;28;20191;-68
2023/02/27 12:57:28;;;;;;;3.10;1.30;;;18.30;33.20;;;;;;5071795;28;20280;-64
2023/02/27 13:00:11;;;;;;;2.30;1.00;;;18.40;33.30;;;;;;5071930;28;20190;-62
2023/02/27 13:02:54;;;;;;;3.35;1.20;;;18.30;33.20;;;;;;5075079;28;20300;-66
2023/02/27 13:05:42;;;;;;;3.22;1.20;;;18.40;33.20;;;;;;5074904;28;20187;-66
2023/02/27 13:08:25;;;;;;;2.30;1.17;;;18.40;33.20;;;;;;5075174;28;20232;-64
2023/02/27 13:11:00;;;;;;;5.60;1.30;;;18.40;33.20;;;;;;5074771;28;20700;-63
2023/02/27 13:13:34;;;;;;;2.70;1.35;;;18.40;33.20;;;;;;5074730;28;20624;-66